Time;durP1;ratioP1;P1;durP2;ratioP2;P2;SDS_P1;SDS_P2;PMS_P1;PMS_P2;Temp;Humidity;BMP_temperature;BMP_pressure;BME280_temperature;BME280_humidity;BME280_pressure;Samples;Min_cycle;Max_cycle;Signal;HPM_P1;HPM_P2
2022/04/17 00:00:48;;;;;;;;;;;;;;;;;;5075774;28;19991;-22
2022/04/17 00:03:14;;;;;;;;;;;;;;;;;;5075510;28;19955;-23
2022/04/17 00:05:41;;;;;;;;;;;;;;;;;;5075305;28;19920;-23
2022/04/17 00:08:07;;;;;;;;;;;;;;;;;;5075245;28;19909;-22
2022/04/17 00:10:33;;;;;;;;;;;;;;;;;;5075398;28;19977;-23
2022/04/17 00:12:59;;;;;;;;;;;;;;;;;;5075662;28;19970;-23
2022/04/17 00:15:24;;;;;;;;;;;;;;;;;;5075917;28;20329;-22
2022/04/17 00:17:50;;;;;;;;;;;;;;;;;;5057649;28;19924;-23
2022/04/17 00:20:16;;;;;;;;;;;;;;;;;;5075548;28;19956;-22
2022/04/17 00:22:42;;;;;;;;;;;;;;;;;;5075255;28;19912;-23
2022/04/17 00:25:08;;;;;;;;;;;;;;;;;;5075177;28;19912;-23
2022/04/17 00:27:34;;;;;;;;;;;;;;;;;;5075488;28;19999;-23
2022/04/17 00:30:00;;;;;;;;;;;;;;;;;;5075442;28;20013;-23
2022/04/17 00:32:26;;;;;;;;;;;;;;;;;;5075518;28;19909;-22
2022/04/17 00:34:52;;;;;;;;;;;;;;;;;;5075389;28;20275;-23
2022/04/17 00:37:18;;;;;;;;;;;;;;;;;;5057379;28;19919;-23
2022/04/17 00:39:44;;;;;;;;;;;;;;;;;;5075023;28;19912;-22
2022/04/17 00:42:10;;;;;;;;;;;;;;;;;;5075011;28;19915;-23
2022/04/17 00:44:37;;;;;;;;;;;;;;;;;;5075061;28;19974;-22
2022/04/17 00:47:03;;;;;;;;;;;;;;;;;;5074989;28;20244;-22
2022/04/17 00:49:29;;;;;;;;;;;;;;;;;;5075489;28;19965;-25
2022/04/17 00:51:55;;;;;;;;;;;;;;;;;;5075429;28;19935;-23
2022/04/17 00:54:21;;;;;;;;;;;;;;;;;;5074890;28;19965;-24
2022/04/17 00:56:47;;;;;;;;;;;;;;;;;;5074871;28;20361;-23
2022/04/17 00:59:13;;;;;;;;;;;;;;;;;;5074871;28;19931;-25
2022/04/17 01:01:39;;;;;;;;;;;;;;;;;;5074772;28;19919;-23
2022/04/17 01:04:05;;;;;;;;;;;;;;;;;;5074578;28;19920;-23
2022/04/17 01:06:32;;;;;;;;;;;;;;;;;;5075404;28;19913;-22
2022/04/17 01:08:57;;;;;;;;;;;;;;;;;;5057197;28;20324;-22
2022/04/17 01:11:24;;;;;;;;;;;;;;;;;;5075324;28;20007;-23
2022/04/17 01:13:50;;;;;;;;;;;;;;;;;;5075321;28;20246;-26
2022/04/17 01:16:18;;;;;;;;;;;;;;;;;;5074683;28;19912;-25
2022/04/17 01:18:45;;;;;;;;;;;;;;;;;;5074960;28;19921;-23
2022/04/17 01:21:11;;;;;;;;;;;;;;;;;;5077357;28;19939;-22
2022/04/17 01:29:06;;;;;;;;;;;;;;;;;;5078690;28;19970;-22
2022/04/17 01:31:32;;;;;;;;;;;;;;;;;;5060805;28;19917;-23
2022/04/17 01:33:58;;;;;;;;;;;;;;;;;;5078686;28;19908;-23
2022/04/17 01:36:24;;;;;;;;;;;;;;;;;;5060770;28;19912;-23
2022/04/17 01:38:50;;;;;;;;;;;;;;;;;;5078563;28;19912;-22
2022/04/17 01:41:18;;;;;;;;;;;;;;;;;;5078552;28;19912;-23
2022/04/17 01:43:44;;;;;;;;;;;;;;;;;;5078297;28;19999;-22
2022/04/17 01:46:10;;;;;;;;;;;;;;;;;;5078183;28;20033;-22
2022/04/17 01:48:36;;;;;;;;;;;;;;;;;;5079252;28;19908;-22
2022/04/17 01:51:02;;;;;;;;;;;;;;;;;;5078113;28;19916;-23
2022/04/17 01:53:28;;;;;;;;;;;;;;;;;;5078083;28;20019;-23
2022/04/17 01:55:54;;;;;;;;;;;;;;;;;;5078543;28;19935;-22
2022/04/17 01:58:20;;;;;;;;;;;;;;;;;;5078211;28;20007;-23
2022/04/17 02:00:46;;;;;;;;;;;;;;;;;;5077887;28;19913;-23
2022/04/17 02:03:12;;;;;;;;;;;;;;;;;;5077801;28;19967;-22
2022/04/17 02:05:38;;;;;;;;;;;;;;;;;;5077685;28;19920;-22
2022/04/17 02:08:06;;;;;;;;;;;;;;;;;;5077859;28;19966;-23
2022/04/17 02:10:32;;;;;;;;;;;;;;;;;;5077733;28;19912;-23
2022/04/17 02:13:00;;;;;;;;;;;;;;;;;;5077623;28;19965;-22
2022/04/17 02:15:26;;;;;;;;;;;;;;;;;;5077952;28;19912;-23
2022/04/17 02:17:52;;;;;;;;;;;;;;;;;;5077881;28;20255;-22
2022/04/17 02:20:18;;;;;;;;;;;;;;;;;;5077867;28;19912;-23
2022/04/17 02:22:45;;;;;;;;;;;;;;;;;;5077487;28;19935;-22
2022/04/17 02:25:11;;;;;;;;;;;;;;;;;;5077436;28;19913;-23
2022/04/17 02:27:37;;;;;;;;;;;;;;;;;;5077758;28;19919;-23
2022/04/17 02:30:03;;;;;;;;;;;;;;;;;;5077465;28;20313;-24
2022/04/17 02:32:29;;;;;;;;;;;;;;;;;;5077541;28;19912;-22
2022/04/17 02:34:55;;;;;;;;;;;;;;;;;;5077377;28;20297;-22
2022/04/17 02:37:21;;;;;;;;;;;;;;;;;;5077456;28;19908;-23
2022/04/17 02:39:47;;;;;;;;;;;;;;;;;;5077495;28;19923;-23
2022/04/17 02:42:13;;;;;;;;;;;;;;;;;;5077131;28;20383;-23
2022/04/17 02:44:38;;;;;;;;;;;;;;;;;;5077161;28;19908;-22
2022/04/17 02:49:50;;;;;;;;;;;;;;;;;;5077464;28;19966;-22
2022/04/17 02:52:16;;;;;;;;;;;;;;;;;;5076928;28;19916;-23
2022/04/17 02:54:42;;;;;;;;;;;;;;;;;;5077529;28;19989;-22
2022/04/17 02:57:08;;;;;;;;;;;;;;;;;;5076890;28;19977;-22
2022/04/17 02:59:34;;;;;;;;;;;;;;;;;;5076899;28;19925;-23
2022/04/17 03:07:32;;;;;;;;;;;;;;;;;;5077069;28;19970;-23
2022/04/17 03:09:58;;;;;;;;;;;;;;;;;;5076995;28;19913;-22
2022/04/17 03:12:24;;;;;;;;;;;;;;;;;;5076568;28;20326;-23
2022/04/17 03:14:49;;;;;;;;;;;;;;;;;;5076563;28;19952;-23
2022/04/17 03:17:15;;;;;;;;;;;;;;;;;;5076702;28;19908;-23
2022/04/17 03:19:41;;;;;;;;;;;;;;;;;;5076467;28;20002;-23
2022/04/17 03:22:07;;;;;;;;;;;;;;;;;;5076359;28;19916;-22
2022/04/17 03:24:33;;;;;;;;;;;;;;;;;;5076618;28;20365;-22
2022/04/17 03:26:59;;;;;;;;;;;;;;;;;;5076266;28;19955;-23
2022/04/17 03:29:25;;;;;;;;;;;;;;;;;;5076792;28;19917;-22
2022/04/17 03:31:51;;;;;;;;;;;;;;;;;;5076709;28;19915;-23
2022/04/17 03:34:18;;;;;;;;;;;;;;;;;;5076194;28;19995;-22
2022/04/17 03:36:44;;;;;;;;;;;;;;;;;;5076388;28;19969;-23
2022/04/17 03:39:10;;;;;;;;;;;;;;;;;;5076596;28;19913;-22
2022/04/17 03:41:36;;;;;;;;;;;;;;;;;;5076555;28;19962;-23
2022/04/17 03:44:03;;;;;;;;;;;;;;;;;;5057774;28;20159;-22
2022/04/17 03:46:29;;;;;;;;;;;;;;;;;;5075944;28;19931;-23
2022/04/17 03:48:55;;;;;;;;;;;;;;;;;;5075927;28;19912;-23
2022/04/17 03:51:21;;;;;;;;;;;;;;;;;;5075841;28;19919;-24
2022/04/17 03:53:47;;;;;;;;;;;;;;;;;;5075762;28;19909;-23
2022/04/17 03:56:13;;;;;;;;;;;;;;;;;;5075725;28;19916;-23
2022/04/17 03:58:39;;;;;;;;;;;;;;;;;;5075659;28;19920;-23
2022/04/17 04:01:05;;;;;;;;;;;;;;;;;;5075914;28;20357;-24
2022/04/17 04:03:32;;;;;;;;;;;;;;;;;;5075641;28;20000;-23
2022/04/17 04:05:58;;;;;;;;;;;;;;;;;;5076134;28;19917;-23
2022/04/17 04:08:24;;;;;;;;;;;;;;;;;;5075542;28;20423;-23
2022/04/17 04:10:50;;;;;;;;;;;;;;;;;;5075508;28;19912;-23
2022/04/17 04:13:16;;;;;;;;;;;;;;;;;;5075370;28;19909;-22
2022/04/17 04:15:43;;;;;;;;;;;;;;;;;;5058035;28;19912;-23
2022/04/17 04:18:09;;;;;;;;;;;;;;;;;;5075306;28;20335;-22
2022/04/17 04:20:35;;;;;;;;;;;;;;;;;;5075357;28;19912;-23
2022/04/17 04:23:01;;;;;;;;;;;;;;;;;;5075349;28;20015;-22
2022/04/17 04:25:27;;;;;;;;;;;;;;;;;;5075237;28;19913;-22
2022/04/17 04:30:37;;;;;;;;;;;;;;;;;;5075241;28;20377;-24
2022/04/17 04:33:03;;;;;;;;;;;;;;;;;;5075389;28;19920;-22
2022/04/17 04:35:29;;;;;;;;;;;;;;;;;;5075121;28;19912;-22
2022/04/17 04:37:56;;;;;;;;;;;;;;;;;;5075792;28;19925;-21
2022/04/17 04:40:22;;;;;;;;;;;;;;;;;;5075347;28;19944;-22
2022/04/17 04:42:48;;;;;;;;;;;;;;;;;;5075011;28;19939;-22
2022/04/17 04:47:59;;;;;;;;;;;;;;;;;;5075095;28;19985;-21
2022/04/17 04:50:25;;;;;;;;;;;;;;;;;;5075250;28;19920;-21
2022/04/17 04:52:51;;;;;;;;;;;;;;;;;;5057803;28;19919;-21
2022/04/17 04:55:17;;;;;;;;;;;;;;;;;;5074248;28;19916;-21
2022/04/17 04:57:43;;;;;;;;;;;;;;;;;;5075380;28;19917;-21
2022/04/17 05:00:09;;;;;;;;;;;;;;;;;;5074862;28;19952;-21
2022/04/17 05:02:35;;;;;;;;;;;;;;;;;;5075083;28;19909;-22
2022/04/17 05:05:01;;;;;;;;;;;;;;;;;;5074736;28;19925;-21
2022/04/17 05:07:27;;;;;;;;;;;;;;;;;;5074815;28;19909;-22
2022/04/17 05:09:53;;;;;;;;;;;;;;;;;;5074770;28;19916;-22
2022/04/17 05:12:19;;;;;;;;;;;;;;;;;;5075006;28;19920;-21
2022/04/17 05:14:45;;;;;;;;;;;;;;;;;;5074700;28;19912;-21
2022/04/17 05:17:11;;;;;;;;;;;;;;;;;;5074758;28;19909;-23
2022/04/17 05:19:38;;;;;;;;;;;;;;;;;;5075240;28;19916;-21
2022/04/17 05:22:10;;;;;;;;;;;;;;;;;;5074615;28;19916;-22
2022/04/17 05:24:36;;;;;;;;;;;;;;;;;;5075019;28;20034;-23
2022/04/17 05:27:02;;;;;;;;;;;;;;;;;;5074655;28;19913;-21
2022/04/17 05:29:28;;;;;;;;;;;;;;;;;;5075163;28;20015;-21
2022/04/17 05:31:54;;;;;;;;;;;;;;;;;;5074476;28;19955;-22
2022/04/17 05:34:20;;;;;;;;;;;;;;;;;;5074878;28;19908;-21
2022/04/17 05:36:46;;;;;;;;;;;;;;;;;;5074545;28;19919;-21
2022/04/17 05:39:12;;;;;;;;;;;;;;;;;;5075034;28;19942;-21
2022/04/17 05:41:39;;;;;;;;;;;;;;;;;;5074485;28;19991;-22
2022/04/17 05:44:05;;;;;;;;;;;;;;;;;;5074479;28;19920;-21
2022/04/17 05:46:35;;;;;;;;;;;;;;;;;;5074990;28;19912;-21
2022/04/17 05:49:01;;;;;;;;;;;;;;;;;;5074405;28;19908;-21
2022/04/17 05:51:27;;;;;;;;;;;;;;;;;;5074386;28;19912;-22
2022/04/17 05:53:53;;;;;;;;;;;;;;;;;;5074392;28;20366;-23
2022/04/17 05:56:19;;;;;;;;;;;;;;;;;;5074582;28;19948;-22
2022/04/17 05:58:45;;;;;;;;;;;;;;;;;;5074537;28;19971;-21
2022/04/17 06:01:11;;;;;;;;;;;;;;;;;;5074775;28;19924;-21
2022/04/17 06:03:37;;;;;;;;;;;;;;;;;;5074026;28;20323;-22
2022/04/17 06:06:03;;;;;;;;;;;;;;;;;;5075275;28;19916;-21
2022/04/17 06:08:29;;;;;;;;;;;;;;;;;;5077868;28;19919;-33
2022/04/17 06:10:55;;;;;;;;;;;;;;;;;;5078056;28;19913;-21
2022/04/17 06:13:21;;;;;;;;;;;;;;;;;;5077699;28;19916;-22
2022/04/17 06:15:47;;;;;;;;;;;;;;;;;;5078230;28;19919;-22
2022/04/17 06:18:13;;;;;;;;;;;;;;;;;;5059934;28;20318;-21
2022/04/17 06:20:39;;;;;;;;;;;;;;;;;;5077827;28;19955;-22
2022/04/17 06:23:05;;;;;;;;;;;;;;;;;;5077500;28;20264;-21
2022/04/17 06:25:31;;;;;;;;;;;;;;;;;;5077779;28;20255;-21
2022/04/17 06:27:59;;;;;;;;;;;;;;;;;;5077418;28;19909;-21
2022/04/17 06:30:25;;;;;;;;;;;;;;;;;;5077353;28;19950;-21
2022/04/17 06:32:51;;;;;;;;;;;;;;;;;;5077260;28;19948;-22
2022/04/17 06:35:17;;;;;;;;;;;;;;;;;;5077594;28;19946;-22
2022/04/17 06:37:43;;;;;;;;;;;;;;;;;;5077211;28;20018;-21
2022/04/17 06:40:09;;;;;;;;;;;;;;;;;;5077251;28;19963;-21
2022/04/17 06:42:35;;;;;;;;;;;;;;;;;;5077160;28;19919;-22
2022/04/17 06:45:01;;;;;;;;;;;;;;;;;;5077203;28;20005;-21
2022/04/17 06:47:27;;;;;;;;;;;;;;;;;;5077147;28;19975;-21
2022/04/17 06:49:53;;;;;;;;;;;;;;;;;;5059477;28;19917;-22
2022/04/17 06:52:19;;;;;;;;;;;;;;;;;;5076954;28;19931;-21
2022/04/17 06:54:45;;;;;;;;;;;;;;;;;;5076920;28;20258;-22
2022/04/17 06:57:11;;;;;;;;;;;;;;;;;;5059270;28;19916;-22
2022/04/17 06:59:39;;;;;;;;;;;;;;;;;;5077424;28;19922;-21
2022/04/17 07:02:05;;;;;;;;;;;;;;;;;;5077038;28;20252;-21
2022/04/17 07:04:31;;;;;;;;;;;;;;;;;;5076634;28;20037;-23
2022/04/17 07:06:57;;;;;;;;;;;;;;;;;;5077004;28;19916;-22
2022/04/17 07:09:23;;;;;;;;;;;;;;;;;;5076619;28;20381;-23
2022/04/17 07:11:49;;;;;;;;;;;;;;;;;;5076594;28;19955;-22
2022/04/17 07:14:15;;;;;;;;;;;;;;;;;;5076907;28;19913;-22
2022/04/17 07:16:41;;;;;;;;;;;;;;;;;;5076527;28;19955;-23
2022/04/17 07:19:07;;;;;;;;;;;;;;;;;;5075542;28;19912;-22
2022/04/17 07:21:34;;;;;;;;;;;;;;;;;;5076995;28;19913;-24
2022/04/17 07:24:01;;;;;;;;;;;;;;;;;;5076623;28;20235;-21
2022/04/17 07:26:28;;;;;;;;;;;;;;;;;;5076384;28;19912;-23
2022/04/17 07:28:54;;;;;;;;;;;;;;;;;;5076909;28;19909;-22
2022/04/17 07:31:20;;;;;;;;;;;;;;;;;;5076243;28;19912;-21
2022/04/17 07:33:46;;;;;;;;;;;;;;;;;;5076167;28;19915;-22
2022/04/17 07:36:11;;;;;;;;;;;;;;;;;;5076151;28;19931;-21
2022/04/17 07:38:37;;;;;;;;;;;;;;;;;;5076079;28;19913;-22
2022/04/17 07:41:03;;;;;;;;;;;;;;;;;;5076056;28;20401;-22
2022/04/17 07:43:29;;;;;;;;;;;;;;;;;;5076179;28;19938;-23
2022/04/17 07:45:55;;;;;;;;;;;;;;;;;;5075876;28;20000;-21
2022/04/17 07:48:21;;;;;;;;;;;;;;;;;;5075920;28;19956;-23
2022/04/17 07:50:52;;;;;;;;;;;;;;;;;;5075841;28;19913;-21
2022/04/17 07:53:18;;;;;;;;;;;;;;;;;;5058190;28;19966;-22
2022/04/17 07:55:44;;;;;;;;;;;;;;;;;;5075749;28;20292;-24
2022/04/17 07:58:22;;;;;;;;;;;;;;;;;;5075686;28;20053;-21
2022/04/17 08:00:57;;;;;;;;;;;;;;;;;;5075958;28;19912;-23
2022/04/17 08:03:46;;;;;;;;;;;;;;;;;;5075545;28;19924;-22
2022/04/17 08:06:12;;;;;;;;;;;;;;;;;;5034881;28;19921;-22
2022/04/17 08:08:39;;;;;;;;;;;;;;;;;;5034880;28;19967;-21
2022/04/17 08:11:05;;;;;;;;;;;;;;;;;;5035055;28;19913;-21
2022/04/17 08:13:31;;;;;;;;;;;;;;;;;;5034722;28;19966;-23
2022/04/17 08:15:59;;;;;;;;;;;;;;;;;;5034976;28;19914;-21
2022/04/17 08:18:25;;;;;;;;;;;;;;;;;;5034725;28;19949;-21
2022/04/17 08:20:51;;;;;;;;;;;;;;;;;;5034641;28;20229;-21
2022/04/17 08:23:17;;;;;;;;;;;;;;;;;;5034819;28;19948;-22
2022/04/17 08:25:43;;;;;;;;;;;;;;;;;;5034890;28;19924;-21
2022/04/17 08:28:09;;;;;;;;;;;;;;;;;;5034597;28;20018;-21
2022/04/17 08:30:34;;;;;;;;;;;;;;;;;;5034323;28;19919;-21
2022/04/17 08:33:01;;;;;;;;;;;;;;;;;;5034733;28;20355;-22
2022/04/17 08:35:27;;;;;;;;;;;;;;;;;;5034710;28;19974;-22
2022/04/17 08:37:54;;;;;;;;;;;;;;;;;;5034375;28;20007;-22
2022/04/17 08:40:20;;;;;;;;;;;;;;;;;;5034687;28;20348;-21
2022/04/17 08:42:46;;;;;;;;;;;;;;;;;;5034525;28;19916;-21
2022/04/17 08:45:12;;;;;;;;;;;;;;;;;;5034904;28;19913;-22
2022/04/17 08:47:38;;;;;;;;;;;;;;;;;;5034846;28;20294;-22
2022/04/17 08:50:04;;;;;;;;;;;;;;;;;;5034209;28;20284;-21
2022/04/17 08:52:30;;;;;;;;;;;;;;;;;;5034589;28;19909;-21
2022/04/17 08:54:56;;;;;;;;;;;;;;;;;;5034175;28;19913;-22
2022/04/17 08:57:22;;;;;;;;;;;;;;;;;;5034220;28;19909;-23
2022/04/17 08:59:48;;;;;;;;;;;;;;;;;;5034109;28;20016;-21
2022/04/17 09:02:16;;;;;;;;;;;;;;;;;;5034097;28;19956;-23
2022/04/17 09:04:42;;;;;;;;;;;;;;;;;;4983230;28;2030627;-21
2022/04/17 09:07:08;;;;;;;;;;;;;;;;;;5074834;28;20240;-22
2022/04/17 09:09:35;;;;;;;;;;;;;;;;;;5075088;28;19909;-21
2022/04/17 09:12:01;;;;;;;;;;;;;;;;;;5074651;28;20058;-21
2022/04/17 09:14:27;;;;;;;;;;;;;;;;;;5075299;28;19962;-21
2022/04/17 09:16:53;;;;;;;;;;;;;;;;;;5075298;28;19986;-21
2022/04/17 09:19:19;;;;;;;;;;;;;;;;;;5074666;28;19916;-22
2022/04/17 09:21:45;;;;;;;;;;;;;;;;;;5074651;28;19931;-21
2022/04/17 09:24:11;;;;;;;;;;;;;;;;;;5074578;28;19912;-21
2022/04/17 09:26:37;;;;;;;;;;;;;;;;;;5074664;28;20343;-22
2022/04/17 09:29:03;;;;;;;;;;;;;;;;;;5074599;28;19924;-21
2022/04/17 09:31:29;;;;;;;;;;;;;;;;;;5074532;28;19912;-22
2022/04/17 09:33:55;;;;;;;;;;;;;;;;;;5074482;28;19944;-22
2022/04/17 09:36:21;;;;;;;;;;;;;;;;;;5074795;28;20255;-21
2022/04/17 09:38:47;;;;;;;;;;;;;;;;;;5074455;28;19995;-23
2022/04/17 09:41:13;;;;;;;;;;;;;;;;;;5075510;28;19949;-22
2022/04/17 09:43:39;;;;;;;;;;;;;;;;;;5078282;28;19962;-22
2022/04/17 09:46:05;;;;;;;;;;;;;;;;;;5078204;28;19913;-22
2022/04/17 09:48:32;;;;;;;;;;;;;;;;;;5078203;28;20301;-24
2022/04/17 09:50:58;;;;;;;;;;;;;;;;;;5078401;28;19916;-23
2022/04/17 09:53:24;;;;;;;;;;;;;;;;;;5078143;28;19913;-22
2022/04/17 09:55:50;;;;;;;;;;;;;;;;;;5077971;28;19912;-22
2022/04/17 09:58:16;;;;;;;;;;;;;;;;;;5078245;28;20011;-21
2022/04/17 10:00:42;;;;;;;;;;;;;;;;;;5077951;28;19974;-21
2022/04/17 10:03:09;;;;;;;;;;;;;;;;;;5077896;28;19912;-23
2022/04/17 10:05:35;;;;;;;;;;;;;;;;;;5077699;28;19920;-22
2022/04/17 10:08:01;;;;;;;;;;;;;;;;;;5077871;28;20251;-23
2022/04/17 10:10:27;;;;;;;;;;;;;;;;;;5077796;28;19958;-22
2022/04/17 10:12:54;;;;;;;;;;;;;;;;;;5077733;28;19912;-22
2022/04/17 10:15:20;;;;;;;;;;;;;;;;;;5078023;28;20300;-22
2022/04/17 10:17:46;;;;;;;;;;;;;;;;;;5077886;28;20042;-23
2022/04/17 10:20:12;;;;;;;;;;;;;;;;;;5059968;28;19912;-22
2022/04/17 10:22:38;;;;;;;;;;;;;;;;;;5059952;28;19969;-22
2022/04/17 10:25:04;;;;;;;;;;;;;;;;;;5077476;28;19923;-21
2022/04/17 10:27:30;;;;;;;;;;;;;;;;;;5077526;28;19908;-22
2022/04/17 10:29:56;;;;;;;;;;;;;;;;;;5077532;28;20007;-22
2022/04/17 10:32:22;;;;;;;;;;;;;;;;;;5077424;28;20350;-21
2022/04/17 10:34:50;;;;;;;;;;;;;;;;;;5077340;28;19924;-22
2022/04/17 10:37:16;;;;;;;;;;;;;;;;;;5077306;28;19916;-22
2022/04/17 10:39:42;;;;;;;;;;;;;;;;;;5077274;28;19923;-22
2022/04/17 10:42:08;;;;;;;;;;;;;;;;;;5077422;28;19958;-21
2022/04/17 10:44:41;;;;;;;;;;;;;;;;;;5077743;28;19944;-22
2022/04/17 10:47:08;;;;;;;;;;;;;;;;;;5077220;28;19908;-22
2022/04/17 10:49:34;;;;;;;;;;;;;;;;;;5077159;28;20339;-22
2022/04/17 10:52:00;;;;;;;;;;;;;;;;;;5076958;28;20014;-22
2022/04/17 10:54:26;;;;;;;;;;;;;;;;;;5077002;28;19920;-22
2022/04/17 10:56:52;;;;;;;;;;;;;;;;;;5076963;28;19910;-22
2022/04/17 10:59:18;;;;;;;;;;;;;;;;;;5076886;28;20014;-22
2022/04/17 11:01:44;;;;;;;;;;;;;;;;;;5077446;28;20001;-22
2022/04/17 11:04:10;;;;;;;;;;;;;;;;;;5076603;28;19921;-21
2022/04/17 11:06:36;;;;;;;;;;;;;;;;;;5077568;28;19923;-22
2022/04/17 11:09:02;;;;;;;;;;;;;;;;;;5077019;28;19918;-25
2022/04/17 11:11:28;;;;;;;;;;;;;;;;;;5076951;28;19912;-21
2022/04/17 11:13:54;;;;;;;;;;;;;;;;;;5076677;28;19916;-22
2022/04/17 11:16:20;;;;;;;;;;;;;;;;;;5077116;28;20029;-21
2022/04/17 11:18:46;;;;;;;;;;;;;;;;;;5076765;28;19912;-21
2022/04/17 11:21:12;;;;;;;;;;;;;;;;;;5076460;28;19919;-22
2022/04/17 11:23:38;;;;;;;;;;;;;;;;;;5076398;28;20251;-22
2022/04/17 11:26:04;;;;;;;;;;;;;;;;;;5076616;28;20261;-21
2022/04/17 11:28:30;;;;;;;;;;;;;;;;;;5076895;28;19995;-22
2022/04/17 11:30:56;;;;;;;;;;;;;;;;;;5076536;28;20256;-22
2022/04/17 11:33:22;;;;;;;;;;;;;;;;;;5076215;28;20004;-21
2022/04/17 11:35:48;;;;;;;;;;;;;;;;;;5076130;28;19963;-22
2022/04/17 11:38:14;;;;;;;;;;;;;;;;;;5076369;28;19959;-21
2022/04/17 11:40:44;;;;;;;;;;;;;;;;;;5076105;28;19913;-22
2022/04/17 11:43:10;;;;;;;;;;;;;;;;;;5076157;28;19912;-22
2022/04/17 11:45:36;;;;;;;;;;;;;;;;;;5076250;28;20213;-21
2022/04/17 11:48:02;;;;;;;;;;;;;;;;;;5075975;28;19915;-22
2022/04/17 11:50:28;;;;;;;;;;;;;;;;;;5076144;28;20000;-21
2022/04/17 11:52:54;;;;;;;;;;;;;;;;;;5076049;28;19908;-22
2022/04/17 11:55:20;;;;;;;;;;;;;;;;;;5076032;28;19923;-22
2022/04/17 11:57:46;;;;;;;;;;;;;;;;;;5075922;28;20255;-22
2022/04/17 12:00:12;;;;;;;;;;;;;;;;;;5075959;28;20400;-21
2022/04/17 12:02:38;;;;;;;;;;;;;;;;;;5057983;28;19908;-21
2022/04/17 12:05:05;;;;;;;;;;;;;;;;;;5075009;28;19925;-21
2022/04/17 12:07:31;;;;;;;;;;;;;;;;;;5075900;28;20341;-22
2022/04/17 12:09:57;;;;;;;;;;;;;;;;;;5075786;28;19958;-21
2022/04/17 12:12:23;;;;;;;;;;;;;;;;;;5075432;28;20053;-23
2022/04/17 12:14:50;;;;;;;;;;;;;;;;;;5075465;28;19913;-22
2022/04/17 12:17:15;;;;;;;;;;;;;;;;;;5057843;28;20354;-22
2022/04/17 12:19:41;;;;;;;;;;;;;;;;;;5075316;28;19917;-23
2022/04/17 12:22:07;;;;;;;;;;;;;;;;;;5075286;28;19909;-23
2022/04/17 12:24:33;;;;;;;;;;;;;;;;;;5075397;28;19917;-22
2022/04/17 12:26:59;;;;;;;;;;;;;;;;;;5075234;28;19921;-21
2022/04/17 12:29:25;;;;;;;;;;;;;;;;;;5075285;28;19909;-22
2022/04/17 12:31:51;;;;;;;;;;;;;;;;;;5075408;28;19913;-22
2022/04/17 12:34:22;;;;;;;;;;;;;;;;;;5057601;28;20292;-22
2022/04/17 12:36:48;;;;;;;;;;;;;;;;;;5057563;28;20361;-22
2022/04/17 12:39:15;;;;;;;;;;;;;;;;;;5075029;28;20388;-22
2022/04/17 12:41:41;;;;;;;;;;;;;;;;;;5075134;28;19909;-22
2022/04/17 12:44:07;;;;;;;;;;;;;;;;;;5075104;28;19995;-23
2022/04/17 12:46:33;;;;;;;;;;;;;;;;;;5075072;28;20324;-21
2022/04/17 12:48:59;;;;;;;;;;;;;;;;;;5075137;28;20259;-22
2022/04/17 12:51:26;;;;;;;;;;;;;;;;;;5075300;28;19913;-22
2022/04/17 12:53:52;;;;;;;;;;;;;;;;;;5057289;28;19920;-22
2022/04/17 12:56:18;;;;;;;;;;;;;;;;;;5075189;28;19960;-21
2022/04/17 12:58:44;;;;;;;;;;;;;;;;;;5074953;28;20026;-22
2022/04/17 13:01:10;;;;;;;;;;;;;;;;;;5074844;28;19922;-23
2022/04/17 13:03:36;;;;;;;;;;;;;;;;;;5074631;28;19916;-23
2022/04/17 13:06:02;;;;;;;;;;;;;;;;;;5074851;28;19912;-23
2022/04/17 13:08:28;;;;;;;;;;;;;;;;;;5075142;28;19914;-22
2022/04/17 13:10:54;;;;;;;;;;;;;;;;;;5074812;28;19913;-23
2022/04/17 13:13:20;;;;;;;;;;;;;;;;;;5074760;28;19915;-22
2022/04/17 13:15:46;;;;;;;;;;;;;;;;;;5074836;28;20011;-22
2022/04/17 13:18:12;;;;;;;;;;;;;;;;;;5079076;28;20312;-22
2022/04/17 13:20:38;;;;;;;;;;;;;;;;;;5078729;28;19912;-22
2022/04/17 13:23:07;;;;;;;;;;;;;;;;;;5078727;28;19973;-22
2022/04/17 13:25:33;;;;;;;;;;;;;;;;;;5078732;28;19939;-22
2022/04/17 13:28:00;;;;;;;;;;;;;;;;;;5078654;28;19991;-22
2022/04/17 13:30:26;;;;;;;;;;;;;;;;;;5078579;28;20366;-22
2022/04/17 13:32:52;;;;;;;;;;;;;;;;;;5078513;28;19909;-22
2022/04/17 13:35:18;;;;;;;;;;;;;;;;;;5078777;28;19936;-24
2022/04/17 13:40:30;;;;;;;;;;;;;;;;;;5078766;28;19920;-22
2022/04/17 13:42:56;;;;;;;;;;;;;;;;;;5078454;28;19915;-23
2022/04/17 13:45:22;;;;;;;;;;;;;;;;;;5078873;28;19912;-22
2022/04/17 13:47:48;;;;;;;;;;;;;;;;;;5078845;28;20306;-23
2022/04/17 13:50:14;;;;;;;;;;;;;;;;;;5078444;28;19913;-23
2022/04/17 13:52:40;;;;;;;;;;;;;;;;;;5078255;28;19909;-22
2022/04/17 13:55:06;;;;;;;;;;;;;;;;;;5078374;28;19970;-23
2022/04/17 13:57:32;;;;;;;;;;;;;;;;;;5078628;28;19909;-22
2022/04/17 13:59:59;;;;;;;;;;;;;;;;;;5078497;28;19917;-23
2022/04/17 14:02:25;;;;;;;;;;;;;;;;;;5078174;28;19977;-24
2022/04/17 14:04:51;;;;;;;;;;;;;;;;;;5077943;28;19931;-23
2022/04/17 14:07:16;;;;;;;;;;;;;;;;;;5077873;28;20251;-22
2022/04/17 14:09:42;;;;;;;;;;;;;;;;;;5078434;28;19944;-22
2022/04/17 14:12:09;;;;;;;;;;;;;;;;;;5077770;28;19935;-22
2022/04/17 14:14:35;;;;;;;;;;;;;;;;;;5077916;28;20295;-22
2022/04/17 14:17:01;;;;;;;;;;;;;;;;;;5078011;28;19920;-23
2022/04/17 14:19:27;;;;;;;;;;;;;;;;;;5060066;28;19916;-24
2022/04/17 14:21:53;;;;;;;;;;;;;;;;;;5059942;28;20381;-23
2022/04/17 14:24:19;;;;;;;;;;;;;;;;;;5077926;28;19966;-22
2022/04/17 14:26:45;;;;;;;;;;;;;;;;;;5077175;28;19999;-23
2022/04/17 14:29:11;;;;;;;;;;;;;;;;;;5078154;28;20326;-22
2022/04/17 14:31:37;;;;;;;;;;;;;;;;;;5077768;28;19912;-22
2022/04/17 14:34:03;;;;;;;;;;;;;;;;;;5077412;28;19916;-22
2022/04/17 14:36:29;;;;;;;;;;;;;;;;;;5077421;28;19913;-22
2022/04/17 14:38:56;;;;;;;;;;;;;;;;;;5077341;28;20256;-22
2022/04/17 14:41:21;;;;;;;;;;;;;;;;;;5059632;28;19923;-22
2022/04/17 14:43:47;;;;;;;;;;;;;;;;;;5077253;28;19913;-23
2022/04/17 14:46:13;;;;;;;;;;;;;;;;;;5077201;28;19916;-22
2022/04/17 14:48:39;;;;;;;;;;;;;;;;;;5077458;28;19909;-23
2022/04/17 14:51:05;;;;;;;;;;;;;;;;;;5077094;28;20362;-24
2022/04/17 14:53:31;;;;;;;;;;;;;;;;;;5077084;28;19962;-22
2022/04/17 14:55:57;;;;;;;;;;;;;;;;;;5077002;28;19916;-23
2022/04/17 14:58:23;;;;;;;;;;;;;;;;;;5076931;28;19916;-22
2022/04/17 15:00:49;;;;;;;;;;;;;;;;;;5076950;28;19923;-22
2022/04/17 15:03:15;;;;;;;;;;;;;;;;;;5076935;28;19908;-23
2022/04/17 15:05:41;;;;;;;;;;;;;;;;;;5076643;28;19931;-22
2022/04/17 15:08:07;;;;;;;;;;;;;;;;;;5077053;28;19912;-23
2022/04/17 15:10:33;;;;;;;;;;;;;;;;;;5077266;28;19939;-22
2022/04/17 15:13:00;;;;;;;;;;;;;;;;;;5076677;28;19909;-23
2022/04/17 15:15:26;;;;;;;;;;;;;;;;;;5076613;28;19924;-22
2022/04/17 15:17:52;;;;;;;;;;;;;;;;;;5058899;28;19909;-23
2022/04/17 15:20:18;;;;;;;;;;;;;;;;;;5077131;28;20003;-23
2022/04/17 15:22:44;;;;;;;;;;;;;;;;;;5076390;28;20003;-23
2022/04/17 15:25:10;;;;;;;;;;;;;;;;;;5077010;28;19912;-23
2022/04/17 15:27:36;;;;;;;;;;;;;;;;;;5076663;28;20251;-23
2022/04/17 15:30:02;;;;;;;;;;;;;;;;;;5076884;28;19912;-23
2022/04/17 15:32:28;;;;;;;;;;;;;;;;;;5058591;28;19999;-23
2022/04/17 15:34:54;;;;;;;;;;;;;;;;;;5076260;28;19912;-23
2022/04/17 15:37:20;;;;;;;;;;;;;;;;;;5058590;28;19920;-22
2022/04/17 15:39:46;;;;;;;;;;;;;;;;;;5075288;28;19916;-22
2022/04/17 15:42:12;;;;;;;;;;;;;;;;;;5076057;28;19909;-23
2022/04/17 15:50:07;;;;;;;;;;;;;;;;;;5076278;28;19923;-23
2022/04/17 15:52:33;;;;;;;;;;;;;;;;;;5058211;28;19913;-23
2022/04/17 15:54:59;;;;;;;;;;;;;;;;;;5076379;28;19999;-23
2022/04/17 15:57:25;;;;;;;;;;;;;;;;;;5075803;28;19999;-22
2022/04/17 15:59:51;;;;;;;;;;;;;;;;;;5075642;28;19978;-23
2022/04/17 16:02:17;;;;;;;;;;;;;;;;;;5058015;28;20294;-22
2022/04/17 16:04:43;;;;;;;;;;;;;;;;;;5075559;28;20007;-23
2022/04/17 16:07:09;;;;;;;;;;;;;;;;;;5075702;28;20326;-22
2022/04/17 16:09:35;;;;;;;;;;;;;;;;;;5075607;28;19923;-22
2022/04/17 16:12:01;;;;;;;;;;;;;;;;;;5075567;28;19951;-23
2022/04/17 16:14:27;;;;;;;;;;;;;;;;;;5075455;28;19962;-22
2022/04/17 16:16:53;;;;;;;;;;;;;;;;;;5075445;28;19920;-22
2022/04/17 16:19:19;;;;;;;;;;;;;;;;;;5075411;28;19966;-22
2022/04/17 16:21:45;;;;;;;;;;;;;;;;;;5075946;28;19913;-23
2022/04/17 16:24:11;;;;;;;;;;;;;;;;;;5075322;28;19935;-23
2022/04/17 16:26:37;;;;;;;;;;;;;;;;;;5075831;28;19919;-23
2022/04/17 16:29:03;;;;;;;;;;;;;;;;;;5075351;28;20274;-23
2022/04/17 16:31:29;;;;;;;;;;;;;;;;;;5075520;28;19912;-24
2022/04/17 16:33:55;;;;;;;;;;;;;;;;;;5075212;28;20357;-24
2022/04/17 16:36:21;;;;;;;;;;;;;;;;;;5075101;28;19912;-23
2022/04/17 16:38:47;;;;;;;;;;;;;;;;;;5075413;28;19912;-24
2022/04/17 16:41:13;;;;;;;;;;;;;;;;;;5075112;28;20439;-23
2022/04/17 16:43:39;;;;;;;;;;;;;;;;;;5075069;28;19915;-25
2022/04/17 16:46:05;;;;;;;;;;;;;;;;;;5075092;28;19912;-22
2022/04/17 16:48:31;;;;;;;;;;;;;;;;;;5075093;28;19908;-22
2022/04/17 16:50:59;;;;;;;;;;;;;;;;;;5074918;28;19982;-22
2022/04/17 16:53:25;;;;;;;;;;;;;;;;;;5075149;28;19932;-22
2022/04/17 16:55:51;;;;;;;;;;;;;;;;;;5075003;28;20258;-24
2022/04/17 17:01:02;;;;;;;;;;;;;;;;;;5074991;28;19927;-23
2022/04/17 17:03:28;;;;;;;;;;;;;;;;;;5075120;28;19981;-23
2022/04/17 17:05:54;;;;;;;;;;;;;;;;;;5074873;28;19946;-22
2022/04/17 17:08:20;;;;;;;;;;;;;;;;;;5057192;28;20005;-23